Weather observations for the past three days for
Paris - Henry County Airport
Metric (Imperial)
Date Time (cdt) Wind (kph) Vis. (km) Weather Sky Cond. Temperature (ºC) Relative Humidity Wind Chill (°C) Heat Index (°C) Pressure Precipitation (cm)
Air Dwpt 6 hour altimeter (cm) sea level (mb) 1 hr 3 hr 6 hr
Max. Min.
04 17:10 SW 28 G 46 14.48 A Few Clouds FEW070 27 9 32% 27 75.72 0.0
04 16:55 S 24 G 37 14.48 A Few Clouds FEW070 27 9 32% 27 75.69 0.0
04 16:35 SW 33 G 46 14.48 Fair and Breezy CLR 27 9 32% 27 75.69 0.0
04 16:15 SW 37 14.48 Fair and Breezy CLR 27 9 32% 27 75.69 0.0
04 15:55 S 35 G 46 16.09 Fair and Breezy CLR 27 9 32% 27 75.69 0.0
04 15:30 SW 30 G 44 14.48 Fair CLR 27 10 34% 27 75.72 0.0
04 15:15 SW 37 G 50 14.48 Fair and Breezy CLR 27 9 32% 27 75.74 0.0
04 14:55 SW 39 G 52 14.48 Fair and Breezy CLR 27 9 32% 27 75.74 0.0
04 14:35 SW 26 G 54 14.48 Fair CLR 27 10 34% 27 75.77 0.0
04 14:15 SW 39 G 48 14.48 Fair and Breezy CLR 27 9 32% 27 75.79 0.0
04 13:50 SW 22 G 50 14.48 Fair CLR 27 10 34% 27 75.82 0.0
04 13:35 SW 22 G 46 14.48 Fair CLR 26 10 37% 26 75.82 0.0
04 13:15 SW 31 G 46 14.48 Fair CLR 26 10 37% 26 75.84 0.0
04 12:55 SW 22 G 46 14.48 Fair CLR 27 10 34% 27 75.84 0.0
04 12:35 SW 31 G 56 14.48 Fair CLR 26 10 37% 26 75.87 0.0
04 12:10 SW 39 14.48 Fair and Breezy CLR 26 10 37% 26 75.9 0.0
04 11:55 W 30 G 44 14.48 Fair CLR 26 10 37% 26 75.9 0.0
04 11:35 SW 24 G 41 14.48 Fair CLR 25 11 42% 26 75.92 0.0
04 11:15 W 22 G 37 14.48 Fair CLR 24 10 41% 25 75.95 0.0
04 10:55 SW 26 G 35 14.48 Fair CLR 24 11 44% 25 75.95 0.0
04 10:30 SW 24 14.48 Fair CLR 23 12 50% 75.97 0.0
04 10:15 SW 28 14.48 Fair CLR 23 11 47% 75.97 0.0
04 09:55 SW 24 14.48 Fair CLR 22 11 50% 75.97 0.0
04 09:35 SW 22 14.48 Fair CLR 22 11 50% 75.97 0.0
04 09:15 SW 22 14.48 Fair CLR 21 11 53% 75.97 0.0
04 08:50 SW 19 G 35 14.48 Fair CLR 20 11 56% 76 0.0
04 08:35 SW 20 16.09 Fair CLR 18 10 60% 76 0.0
04 08:15 SW 20 14.48 Fair CLR 18 10 60% 76 0.0
04 07:55 SW 17 16.09 Fair CLR 18 10 60% 75.97 0.0
04 07:35 SW 17 16.09 Fair CLR 17 10 64% 75.97 0.0
04 07:10 SW 15 14.48 Fair CLR 16 10 68% 75.97 0.0
04 06:55 SW 15 14.48 Fair CLR 15 9 68% 75.95 0.0
04 06:35 SW 13 16.09 Fair CLR 15 9 68% 75.95 0.0
04 06:15 SW 15 16.09 Fair CLR 14 9 72% 75.95 0.0
04 05:55 SW 17 16.09 Fair CLR 14 8 67% 75.92 0.0
04 05:30 SW 15 16.09 Fair CLR 14 8 67% 75.92 0.0
04 05:15 SW 15 G 24 16.09 Fair CLR 15 8 63% 75.95 0.0
04 04:55 SW 19 16.09 Fair CLR 15 7 59% 75.95 0.0
04 04:35 SW 19 16.09 Fair CLR 15 7 59% 75.95 0.0
04 04:15 SW 17 G 28 16.09 Fair CLR 15 7 59% 75.95 0.0
04 03:50 SW 22 16.09 Fair CLR 15 7 59% 75.95 0.0
04 03:35 SW 19 G 28 16.09 Fair CLR 15 6 55% 75.95 0.0
04 03:15 SW 17 16.09 Fair CLR 14 6 59% 75.95 0.0
04 02:55 SW 15 16.09 Fair CLR 14 6 59% 75.95 0.0
04 02:35 SW 17 G 26 16.09 Fair CLR 14 6 59% 75.97 0.0
04 02:10 SW 19 16.09 Fair CLR 14 6 59% 75.97 0.0
04 01:55 S 15 16.09 Fair CLR 14 6 59% 76 0.0
04 01:35 S 15 16.09 Fair CLR 15 6 55% 76 0.0
04 01:10 SW 17 G 26 16.09 Fair CLR 15 6 55% 76.02 0.0
04 00:55 SW 17 16.09 Fair CLR 15 5 51% 76.05 0.0
04 00:30 SW 20 16.09 Fair CLR 15 5 51% 76.05 0.0
04 00:10 SW 17 16.09 Fair CLR 15 5 51% 76.05 0.0
03 23:50 SW 17 16.09 Fair CLR 14 5 55% 76.07 0.0
03 23:30 SW 15 16.09 Fair CLR 14 5 55% 76.07 0.0
03 23:10 SW 17 16.09 Fair CLR 14 5 55% 76.07 0.0
03 22:50 SW 17 16.09 Fair CLR 14 5 55% 76.1 0.0
03 22:35 S 17 16.09 Fair CLR 14 5 55% 76.1 0.0
03 22:15 SW 17 16.09 Fair CLR 13 6 63% 76.1 0.0
03 21:50 S 9 16.09 Fair CLR 11 5 67% 76.12 0.0
03 21:35 S 9 16.09 Fair CLR 11 5 67% 76.1 0.0
03 21:10 S 11 16.09 Fair CLR 12 5 63% 76.1 0.0
03 20:55 S 7 16.09 Fair CLR 12 5 63% 76.1 0.0
03 20:35 S 7 16.09 Fair CLR 13 5 59% 76.1 0.0
03 20:15 SW 7 16.09 Fair CLR 14 5 55% 76.07 0.0
03 19:55 S 13 16.09 Fair CLR 16 4 45% 76.07 0.0
03 19:30 SW 13 16.09 Fair CLR 18 4 40% 76.07 0.0
03 19:15 S 15 16.09 Fair CLR 18 4 40% 76.1 0.0
03 18:55 SW 19 16.09 Fair CLR 19 4 37% 76.12 0.0
03 18:35 SW 15 G 33 14.48 Fair CLR 20 3 33% 76.15 0.0
03 18:15 SW 19 G 31 16.09 Fair CLR 20 3 33% 76.15 0.0
03 17:50 S 22 14.48 Fair CLR 21 3 31% 76.15 0.0
03 17:35 SW 24 G 33 14.48 Fair CLR 21 3 31% 76.15 0.0
03 17:15 S 15 G 24 16.09 Fair CLR 21 3 31% 76.17 0.0
03 16:55 SW 19 G 30 16.09 Fair CLR 21 3 31% 76.2 0.0
03 16:35 SW 20 G 30 14.48 Fair CLR 21 3 31% 76.23 0.0
03 16:10 SW 28 G 37 16.09 Fair CLR 21 3 31% 76.28 0.0
03 15:55 SW 24 G 35 16.09 Fair CLR 21 3 31% 76.28 0.0
03 15:35 W 13 G 35 14.48 Fair CLR 20 3 33% 76.3 0.0
03 15:15 SW 17 G 33 16.09 Fair CLR 20 3 33% 76.35 0.0
03 14:55 SW 20 G 33 16.09 Fair CLR 20 3 33% 76.4 0.0
03 14:30 SW 20 G 43 14.48 Fair CLR 20 3 33% 76.43 0.0
03 14:15 SW 20 G 31 14.48 Fair CLR 20 3 33% 76.45 0.0
03 13:55 SW 15 G 31 16.09 Fair CLR 19 2 32% 76.45 0.0
03 13:35 W 17 G 33 16.09 Fair CLR 19 2 32% 76.48 0.0
03 13:15 SW 24 G 33 16.09 Fair CLR 19 3 35% 76.5 0.0
03 12:50 W 19 G 44 14.48 Fair CLR 19 2 32% 76.53 0.0
03 12:35 SW 13 G 28 14.48 Fair CLR 18 3 37% 76.53 0.0
03 12:15 S 9 G 30 14.48 Fair CLR 18 3 37% 76.56 0.0
03 11:55 SW 15 G 31 14.48 Fair CLR 18 3 37% 76.58 0.0
03 11:35 S 13 G 28 14.48 Fair CLR 17 2 37% 76.61 0.0
03 11:10 S 17 14.48 Fair CLR 16 3 42% 76.63 0.0
03 10:55 S 17 14.48 Fair CLR 16 3 42% 76.63 0.0
03 10:35 S 15 12.87 Fair CLR 16 3 42% 76.63 0.0
03 10:15 S 17 14.48 Fair CLR 15 3 45% 76.63 0.0
03 09:55 S 20 12.87 Fair CLR 15 4 48% 76.63 0.0
03 09:30 S 17 11.27 Fair CLR 14 5 55% 76.63 0.0
03 09:15 S 17 12.87 Fair CLR 13 5 59% 76.63 0.0
03 08:55 S 17 14.48 Fair CLR 12 6 67% 76.63 0.0
03 08:35 S 11 12.87 Fair CLR 11 7 77% 76.66 0.0
03 08:15 S 7 11.27 Fair CLR 11 8 82% 76.66 0.0
03 07:50 S 9 11.27 Fair CLR 9 8 94% 8 76.63 0.0
03 07:35 S 9 9.66 Fog/Mist CLR 8 8 100% 7 76.63 0.0
03 07:15 S 6 9.66 Fog/Mist CLR 6 6 100% 76.63 0.0
03 06:55 Calm 6.44 Fog/Mist CLR 4 4 100% 76.61 0.0
03 06:35 Calm 6.44 Fog/Mist CLR 3 3 100% 76.61 0.0
03 06:10 Calm 1.21 Fog/Mist VV005 3 3 100% 76.58 0.0
03 05:55 Calm 0.80 Fog/Mist VV005 2 2 100% 76.56 0.0
03 05:35 Calm 9.66 Fog/Mist CLR 3 3 100% 76.56 0.0
03 05:15 Calm 9.66 Fog/Mist CLR 3 3 100% 76.56 0.0
03 04:55 Calm 0.40 Fog VV002 3 3 100% 76.56 0.0
03 04:30 Calm 0.40 Fog BKN055 2 2 100% 76.53 0.0
03 04:15 Calm 2.01 Fog/Mist CLR 1 1 100% 76.53 0.0
03 03:55 Calm 11.27 Fair CLR 3 3 100% 76.53 0.0
03 03:35 Calm 12.87 A Few Clouds FEW055 4 4 100% 76.53 0.0
03 03:15 Calm 6.44 Fog/Mist FEW055 4 4 100% 76.53 0.0
03 02:50 Calm 14.48 Fair CLR 4 4 100% 76.53 0.0
03 02:35 Calm 6.44 Fog/Mist CLR 4 4 100% 76.5 0.0
03 02:15 Calm 4.83 Fog/Mist CLR 3 3 100% 76.53 0.0
03 01:55 Calm 14.48 Fair CLR 4 4 100% 76.53 0.0
03 01:35 Calm 16.09 Fair CLR 4 4 100% 76.53 0.0
03 01:10 Calm 16.09 Fair CLR 4 4 100% 76.53 0.0
03 00:55 Calm 16.09 Fair CLR 5 5 100% 76.53 0.0
03 00:35 NE 6 16.09 Fair CLR 6 6 100% 76.53 0.0
03 00:15 Calm 16.09 Fair CLR 6 6 100% 76.53 0.0
02 23:55 Calm 16.09 Fair CLR 5 5 100% 76.53 0.0
02 23:30 Calm 16.09 Fair CLR 6 6 100% 76.5 0.0
02 23:15 Calm 16.09 Fair CLR 6 6 100% 76.5 0.0
02 22:55 Calm 16.09 Fair CLR 7 6 93% 76.53 0.0
02 22:35 Calm 16.09 Fair CLR 6 6 100% 76.53 0.0
02 22:15 Calm 16.09 Fair CLR 6 6 100% 76.53 0.0
02 21:50 Calm 16.09 Fair CLR 7 6 93% 76.5 0.0
02 21:35 Calm 16.09 Fair CLR 7 6 93% 76.5 0.0
02 21:15 Calm 16.09 Fair CLR 7 6 93% 76.48 0.0
02 20:55 Calm 16.09 Fair CLR 7 6 93% 76.45 0.0
02 20:35 Calm 16.09 Fair CLR 9 5 76% 76.45 0.0
02 20:10 N 7 16.09 Fair CLR 10 5 71% 9 76.43 0.0
02 19:55 N 9 16.09 Fair CLR 11 5 67% 76.43 0.0
02 19:35 N 11 16.09 Fair CLR 12 5 63% 76.4 0.0
02 19:15 N 17 G 26 14.48 Fair CLR 13 4 55% 76.38 0.0
02 18:55 N 15 G 28 14.48 Fair CLR 13 4 55% 76.35 0.0
02 18:30 N 20 G 33 14.48 Fair CLR 14 4 51% 76.35 0.0
02 18:15 N 24 G 33 16.09 Fair CLR 15 4 48% 76.35 0.0
02 17:55 N 22 G 33 16.09 Fair CLR 15 4 48% 76.33 0.0
02 17:35 N 20 G 33 14.48 Fair CLR 16 5 48% 76.33 0.0
02 17:15 N 20 G 54 14.48 A Few Clouds FEW090 16 5 48% 76.3 0.0
02 16:50 N 26 G 39 14.48 Overcast SCT075 OVC090 15 5 51% 76.28 0.0
02 16:35 N 28 G 43 14.48 Mostly Cloudy FEW075 BKN090 16 5 48% 76.25 0.0
02 16:15 N 26 G 39 14.48 Mostly Cloudy FEW080 BKN100 18 0 30% 76.23 0.0
02 15:55 NW 15 G 35 14.48 Partly Cloudy SCT080 SCT095 19 -1 26% 76.17 0.0
02 15:35 NW 15 G 33 16.09 A Few Clouds FEW080 FEW100 20 0 26% 76.17 0.0
02 15:10 W 13 G 41 14.48 Partly Cloudy FEW075 FEW095 SCT110 19 0 28% 76.2 0.0
02 14:55 W 20 G 41 14.48 Partly Cloudy FEW075 SCT095 SCT110 19 1 30% 76.2 0.0
02 14:35 W 17 G 30 16.09 A Few Clouds FEW095 19 1 30% 76.2 0.0
02 14:15 W 19 14.48 A Few Clouds FEW070 19 3 35% 76.2 0.0
02 13:55 W 19 16.09 Mostly Cloudy BKN070 BKN080 18 1 32% 76.23 0.0
02 13:30 Vrbl 7 G 24 16.09 Mostly Cloudy FEW065 SCT075 BKN095 18 2 34% 76.23 0.0
02 13:15 W 15 G 35 16.09 Mostly Cloudy FEW065 SCT080 BKN095 19 2 32% 76.25 0.0
02 12:55 W 17 G 30 16.09 Mostly Cloudy SCT065 BKN080 BKN090 18 2 34% 76.28 0.0
02 12:35 W 20 G 30 14.48 Partly Cloudy FEW065 FEW080 SCT090 18 2 34% 76.28 0.0
02 12:15 W 24 14.48 Partly Cloudy FEW080 SCT090 SCT110 18 2 34% 76.3 0.0
02 11:50 W 20 G 31 14.48 Mostly Cloudy BKN080 BKN110 18 3 37% 76.33 0.0
02 11:35 W 15 G 30 16.09 Mostly Cloudy SCT085 BKN110 18 2 34% 76.35 0.0
02 11:15 SW 13 16.09 Partly Cloudy SCT080 SCT090 SCT110 17 2 37% 76.35 0.0
02 10:55 Vrbl 6 G 19 16.09 Partly Cloudy SCT085 SCT110 17 2 37% 76.35 0.0
02 10:35 SW 9 16.09 Mostly Cloudy BKN100 16 1 36% 76.35 0.0
02 10:10 Calm 16.09 A Few Clouds FEW100 16 3 42% 76.35 0.0
02 09:55 Vrbl 9 14.48 Partly Cloudy SCT100 15 4 48% 76.35 0.0
02 09:35 Calm 16.09 Mostly Cloudy FEW080 BKN100 14 4 51% 76.35 0.0
02 09:15 Calm 16.09 Partly Cloudy FEW080 SCT095 15 3 45% 76.35 0.0
02 08:55 SE 7 16.09 Fair CLR 14 4 51% 76.35 0.0
02 08:30 Vrbl 6 14.48 Fair CLR 13 5 59% 76.33 0.0
02 08:15 Calm 16.09 Fair CLR 12 5 63% 76.35 0.0
02 07:55 Calm 14.48 Fair CLR 11 7 77% 76.33 0.0
02 07:35 Calm 16.09 Fair CLR 9 8 94% 76.33 0.0
02 07:15 Calm 16.09 Partly Cloudy FEW075 SCT090 8 8 100% 76.3 0.0
02 06:50 Calm 12.87 A Few Clouds FEW080 FEW090 6 6 100% 76.3 0.0
02 06:35 Calm 16.09 Fair CLR 5 5 100% 76.28 0.0
02 06:15 Calm 14.48 Fair CLR 4 4 100% 76.25 0.0
02 05:55 Calm 16.09 Fair CLR 4 4 100% 76.25 0.0
02 05:35 Calm 16.09 Fair CLR 5 5 100% 76.25 0.0
02 05:10 Calm 16.09 Fair CLR 5 5 100% 76.25 0.0
02 04:55 Calm 16.09 Fair CLR 5 5 100% 76.25 0.0
02 04:35 Calm 16.09 Fair CLR 5 5 100% 76.23 0.0
02 04:15 Calm 16.09 Fair CLR 6 5 93% 76.23 0.0
02 03:55 Calm 16.09 Fair CLR 6 5 93% 76.23 0.0
02 03:30 Calm 16.09 Fair CLR 6 5 93% 76.23 0.0
02 03:15 Calm 16.09 Fair CLR 7 5 87% 76.23 0.0
02 02:55 Calm 16.09 Fair CLR 7 5 87% 76.25 0.0
02 02:35 NE 6 16.09 Fair CLR 7 5 87% 76.25 0.0
02 02:15 Calm 16.09 Fair CLR 9 4 71% 76.28 0.0
02 01:50 NE 6 16.09 Fair CLR 9 4 71% 76.28 0.0
02 01:35 NE 6 16.09 Fair CLR 9 4 71% 76.28 0.0
02 01:15 Calm 16.09 Fair CLR 7 5 87% 76.3 0.0
02 00:55 Calm 16.09 Fair CLR 8 4 76% 76.33 0.0
02 00:35 Calm 16.09 Fair CLR 8 4 76% 76.3 0.0
02 00:10 Calm 16.09 Fair CLR 8 4 76% 76.28 0.0
01 23:55 N 6 16.09 Fair CLR 8 4 76% 76.28 0.0
01 23:35 Calm 16.09 Fair CLR 9 4 71% 76.28 0.0
01 23:15 Calm 16.09 Fair CLR 9 4 71% 76.28 0.0
01 22:55 NE 6 16.09 Fair CLR 9 4 71% 76.3 0.0
01 22:30 Calm 16.09 Fair CLR 8 4 76% 76.33 0.0
01 22:15 Calm 16.09 Fair CLR 9 4 71% 76.35 0.0
01 21:55 Calm 16.09 Fair CLR 10 3 62% 76.35 0.0
01 21:35 Calm 16.09 Fair CLR 10 3 62% 76.38 0.0
01 21:15 N 6 16.09 Fair CLR 11 3 58% 76.35 0.0
01 20:50 N 6 16.09 Fair CLR 11 3 58% 76.3 0.0
01 20:35 N 7 16.09 Fair CLR 12 2 51% 76.3 0.0
01 20:15 N 7 16.09 Fair CLR 13 1 44% 76.25 0.0
01 19:55 N 9 16.09 Fair CLR 12 2 51% 76.25 0.0
01 19:35 N 7 16.09 Fair CLR 14 1 41% 76.23 0.0
01 19:10 N 11 16.09 Fair CLR 15 0 36% 76.17 0.0
01 18:55 N 13 G 24 16.09 Fair CLR 16 0 34% 76.15 0.0
01 18:35 N 15 16.09 Fair CLR 16 0 34% 76.15 0.0
01 18:15 NE 15 16.09 Fair CLR 17 -1 30% 76.12 0.0
01 17:55 N 13 G 24 14.48 Fair CLR 17 0 32% 76.1 0.0
01 17:30 N 17 16.09 Fair CLR 17 0 32% 76.1 0.0
Date Time (cdt) Wind (kph) Vis. (km) Weather Sky Cond. Air Dwpt Max. Min. Relative Humidity Wind Chill (°C) Heat Index (°C) altimeter (cm) sea level (mb) 1 hr 3 hr 6 hr
6 hour
Temperature (ºC) Pressure Precipitation (cm)